Time;durP1;ratioP1;P1;durP2;ratioP2;P2;SDS_P1;SDS_P2;PMS_P1;PMS_P2;Temp;Humidity;BMP_temperature;BMP_pressure;BME280_temperature;BME280_humidity;BME280_pressure;Samples;Min_cycle;Max_cycle;Signal;HPM_P1;HPM_P2
2022/05/22 00:01:40;;;;;;;;;;;;;;;;;;6200489;23;19927;-85
2022/05/22 00:04:06;;;;;;;;;;;;;;;;;;6201701;23;19926;-85
2022/05/22 00:06:32;;;;;;;;;;;;;;;;;;6226665;23;20152;-84
2022/05/22 00:08:58;;;;;;;;;;;;;;;;;;6202614;23;19920;-84
2022/05/22 00:11:24;;;;;;;;;;;;;;;;;;6199672;23;19919;-85
2022/05/22 00:13:50;;;;;;;;;;;;;;;;;;6202167;23;19919;-85
2022/05/22 00:19:01;;;;;;;;;;;;;;;;;;6228905;23;20359;-85
2022/05/22 00:21:27;;;;;;;;;;;;;;;;;;6225647;23;19924;-85
2022/05/22 00:23:53;;;;;;;;;;;;;;;;;;6227795;23;20412;-85
2022/05/22 00:26:19;;;;;;;;;;;;;;;;;;6228540;23;20462;-85
2022/05/22 00:28:45;;;;;;;;;;;;;;;;;;6201004;23;20038;-85
2022/05/22 00:31:11;;;;;;;;;;;;;;;;;;6229982;23;19997;-85
2022/05/22 00:33:39;;;;;;;;;;;;;;;;;;6177402;23;19919;-85
2022/05/22 00:36:05;;;;;;;;;;;;;;;;;;6228476;23;19919;-85
2022/05/22 00:38:36;;;;;;;;;;;;;;;;;;6177731;23;20188;-85
2022/05/22 00:41:02;;;;;;;;;;;;;;;;;;6201300;23;19993;-85
2022/05/22 00:43:30;;;;;;;;;;;;;;;;;;6174989;23;19919;-85
2022/05/22 00:45:56;;;;;;;;;;;;;;;;;;6201712;23;20391;-85
2022/05/22 00:48:22;;;;;;;;;;;;;;;;;;6199025;23;19920;-85
2022/05/22 00:50:48;;;;;;;;;;;;;;;;;;6175134;23;19922;-85
2022/05/22 00:53:14;;;;;;;;;;;;;;;;;;6196619;23;19924;-85
2022/05/22 00:55:40;;;;;;;;;;;;;;;;;;6177705;23;19925;-84
2022/05/22 00:58:06;;;;;;;;;;;;;;;;;;6177031;23;19919;-85
2022/05/22 01:00:32;;;;;;;;;;;;;;;;;;6199838;23;19926;-85
2022/05/22 01:05:43;;;;;;;;;;;;;;;;;;6205066;23;19993;-85
2022/05/22 01:08:09;;;;;;;;;;;;;;;;;;6204107;23;19919;-85
2022/05/22 01:10:35;;;;;;;;;;;;;;;;;;6178485;23;19919;-84
2022/05/22 01:13:01;;;;;;;;;;;;;;;;;;6180795;23;19926;-85
2022/05/22 01:15:27;;;;;;;;;;;;;;;;;;6178108;23;19951;-84
2022/05/22 01:17:53;;;;;;;;;;;;;;;;;;6205324;23;19919;-85
2022/05/22 01:20:19;;;;;;;;;;;;;;;;;;6204314;23;19951;-85
2022/05/22 01:22:45;;;;;;;;;;;;;;;;;;6204021;23;19923;-84
2022/05/22 01:25:11;;;;;;;;;;;;;;;;;;6205562;23;19969;-85
2022/05/22 01:27:37;;;;;;;;;;;;;;;;;;6203762;23;19990;-84
2022/05/22 01:30:04;;;;;;;;;;;;;;;;;;6180469;23;19920;-85
2022/05/22 01:32:30;;;;;;;;;;;;;;;;;;6177636;23;19919;-85
2022/05/22 01:34:56;;;;;;;;;;;;;;;;;;6181611;23;19919;-85
2022/05/22 01:37:22;;;;;;;;;;;;;;;;;;6177097;23;20337;-85
2022/05/22 01:39:48;;;;;;;;;;;;;;;;;;6179360;23;19942;-84
2022/05/22 01:42:14;;;;;;;;;;;;;;;;;;6202376;23;20252;-85
2022/05/22 01:44:40;;;;;;;;;;;;;;;;;;6179660;23;20323;-85
2022/05/22 01:47:06;;;;;;;;;;;;;;;;;;6205832;23;20010;-84
2022/05/22 01:49:32;;;;;;;;;;;;;;;;;;6178833;23;19965;-85
2022/05/22 01:51:59;;;;;;;;;;;;;;;;;;6180640;23;20361;-85
2022/05/22 01:54:25;;;;;;;;;;;;;;;;;;6202406;23;19986;-85
2022/05/22 01:56:51;;;;;;;;;;;;;;;;;;6204327;23;19962;-85
2022/05/22 01:59:17;;;;;;;;;;;;;;;;;;6202125;23;20324;-85
2022/05/22 02:01:43;;;;;;;;;;;;;;;;;;6179799;23;19997;-85
2022/05/22 02:04:08;;;;;;;;;;;;;;;;;;6202725;23;19926;-85
2022/05/22 02:06:34;;;;;;;;;;;;;;;;;;6200625;23;19930;-85
2022/05/22 02:09:00;;;;;;;;;;;;;;;;;;6228084;23;19919;-85
2022/05/22 02:11:26;;;;;;;;;;;;;;;;;;6228164;23;20294;-85
2022/05/22 02:13:52;;;;;;;;;;;;;;;;;;6200646;23;20017;-85
2022/05/22 02:16:18;;;;;;;;;;;;;;;;;;6200521;23;19995;-85
2022/05/22 02:18:44;;;;;;;;;;;;;;;;;;6202472;23;20416;-85
2022/05/22 02:21:10;;;;;;;;;;;;;;;;;;6178261;23;19967;-85
2022/05/22 02:23:36;;;;;;;;;;;;;;;;;;6199619;23;19925;-85
2022/05/22 02:26:02;;;;;;;;;;;;;;;;;;6203112;23;19915;-85
2022/05/22 02:28:28;;;;;;;;;;;;;;;;;;6227367;23;19919;-85
2022/05/22 02:30:54;;;;;;;;;;;;;;;;;;6202618;23;19923;-85
2022/05/22 02:33:20;;;;;;;;;;;;;;;;;;6173910;23;19919;-85
2022/05/22 02:35:47;;;;;;;;;;;;;;;;;;6175704;23;20394;-84
2022/05/22 02:38:13;;;;;;;;;;;;;;;;;;6201004;23;19923;-85
2022/05/22 02:40:39;;;;;;;;;;;;;;;;;;6201052;23;20316;-85
2022/05/22 02:43:05;;;;;;;;;;;;;;;;;;6203299;23;20011;-84
2022/05/22 02:45:31;;;;;;;;;;;;;;;;;;6198899;23;19919;-84
2022/05/22 02:47:57;;;;;;;;;;;;;;;;;;6228760;23;19923;-84
2022/05/22 02:50:23;;;;;;;;;;;;;;;;;;6225368;23;19999;-85
2022/05/22 02:52:49;;;;;;;;;;;;;;;;;;6202321;23;20333;-84
2022/05/22 02:55:16;;;;;;;;;;;;;;;;;;6227763;23;19919;-85
2022/05/22 02:57:42;;;;;;;;;;;;;;;;;;6201252;23;19933;-85
2022/05/22 03:00:08;;;;;;;;;;;;;;;;;;6201467;23;19994;-85
2022/05/22 03:02:34;;;;;;;;;;;;;;;;;;6224502;23;19923;-85
2022/05/22 03:05:00;;;;;;;;;;;;;;;;;;6175458;23;19923;-84
2022/05/22 03:07:26;;;;;;;;;;;;;;;;;;6199333;23;20014;-85
2022/05/22 03:09:52;;;;;;;;;;;;;;;;;;6204327;23;19990;-85
2022/05/22 03:12:24;;;;;;;;;;;;;;;;;;6175782;23;19966;-85
2022/05/22 03:14:50;;;;;;;;;;;;;;;;;;6177912;23;19920;-85
2022/05/22 03:17:16;;;;;;;;;;;;;;;;;;6174155;23;20013;-85
2022/05/22 03:19:42;;;;;;;;;;;;;;;;;;6230330;23;19998;-84
2022/05/22 03:22:08;;;;;;;;;;;;;;;;;;6201640;23;19920;-84
2022/05/22 03:24:34;;;;;;;;;;;;;;;;;;6175079;23;20350;-85
2022/05/22 03:27:00;;;;;;;;;;;;;;;;;;6203952;23;19926;-85
2022/05/22 03:29:26;;;;;;;;;;;;;;;;;;6201524;23;20341;-85
2022/05/22 03:31:52;;;;;;;;;;;;;;;;;;6177186;23;19920;-85
2022/05/22 03:34:20;;;;;;;;;;;;;;;;;;6199927;23;19926;-85
2022/05/22 03:36:46;;;;;;;;;;;;;;;;;;6178447;23;19926;-85
2022/05/22 03:39:12;;;;;;;;;;;;;;;;;;6177302;23;19994;-85
2022/05/22 03:41:38;;;;;;;;;;;;;;;;;;6177015;23;19926;-85
2022/05/22 03:44:05;;;;;;;;;;;;;;;;;;6176254;23;19926;-85
2022/05/22 03:46:32;;;;;;;;;;;;;;;;;;6197838;23;19919;-85
2022/05/22 03:48:57;;;;;;;;;;;;;;;;;;6177328;23;19920;-84
2022/05/22 03:51:23;;;;;;;;;;;;;;;;;;6200166;23;19927;-85
2022/05/22 03:53:49;;;;;;;;;;;;;;;;;;6201526;23;19977;-85
2022/05/22 03:56:16;;;;;;;;;;;;;;;;;;6175305;23;19926;-85
2022/05/22 03:58:42;;;;;;;;;;;;;;;;;;6201669;23;20726;-85
2022/05/22 04:01:08;;;;;;;;;;;;;;;;;;6203488;23;19926;-85
2022/05/22 04:03:39;;;;;;;;;;;;;;;;;;6198867;23;19919;-85
2022/05/22 04:06:05;;;;;;;;;;;;;;;;;;6177735;23;19978;-84
2022/05/22 04:08:31;;;;;;;;;;;;;;;;;;6197219;23;19920;-85
2022/05/22 04:10:57;;;;;;;;;;;;;;;;;;6174974;23;19923;-85
2022/05/22 04:13:23;;;;;;;;;;;;;;;;;;6198520;23;19926;-85
2022/05/22 04:15:49;;;;;;;;;;;;;;;;;;6202222;23;20248;-85
2022/05/22 04:18:15;;;;;;;;;;;;;;;;;;6199556;23;19916;-85
2022/05/22 04:20:41;;;;;;;;;;;;;;;;;;6202485;23;19919;-85
2022/05/22 04:25:52;;;;;;;;;;;;;;;;;;6202713;23;19923;-85
2022/05/22 04:28:18;;;;;;;;;;;;;;;;;;6173958;23;19927;-85
2022/05/22 04:30:46;;;;;;;;;;;;;;;;;;6200777;23;19919;-85
2022/05/22 04:33:12;;;;;;;;;;;;;;;;;;6176512;23;19920;-85
2022/05/22 04:35:38;;;;;;;;;;;;;;;;;;6176556;23;19919;-85
2022/05/22 04:38:04;;;;;;;;;;;;;;;;;;6201757;23;19954;-85
2022/05/22 04:40:30;;;;;;;;;;;;;;;;;;6199869;23;19927;-85
2022/05/22 04:42:56;;;;;;;;;;;;;;;;;;6201882;23;19923;-85
2022/05/22 04:45:22;;;;;;;;;;;;;;;;;;6173607;23;19958;-85
2022/05/22 04:47:51;;;;;;;;;;;;;;;;;;6201452;23;20328;-85
2022/05/22 04:50:17;;;;;;;;;;;;;;;;;;6198456;23;20146;-85
2022/05/22 04:52:43;;;;;;;;;;;;;;;;;;6201494;23;20013;-85
2022/05/22 04:55:09;;;;;;;;;;;;;;;;;;6201802;23;20351;-85
2022/05/22 04:57:34;;;;;;;;;;;;;;;;;;6199940;23;20248;-85
2022/05/22 05:00:00;;;;;;;;;;;;;;;;;;6203310;23;20339;-85
2022/05/22 05:02:26;;;;;;;;;;;;;;;;;;6198742;23;20300;-85
2022/05/22 05:04:52;;;;;;;;;;;;;;;;;;6176193;23;19989;-85
2022/05/22 05:07:18;;;;;;;;;;;;;;;;;;6200553;23;20610;-85
2022/05/22 05:09:45;;;;;;;;;;;;;;;;;;6177291;23;19993;-85
2022/05/22 05:12:11;;;;;;;;;;;;;;;;;;6175984;23;19916;-85
2022/05/22 05:14:37;;;;;;;;;;;;;;;;;;6171261;23;20066;-85
2022/05/22 05:17:03;;;;;;;;;;;;;;;;;;6174816;23;19943;-85
2022/05/22 05:19:29;;;;;;;;;;;;;;;;;;6197270;23;20332;-85
2022/05/22 05:21:58;;;;;;;;;;;;;;;;;;6178061;23;20235;-85
2022/05/22 05:24:24;;;;;;;;;;;;;;;;;;6197905;23;19923;-85
2022/05/22 05:26:54;;;;;;;;;;;;;;;;;;6202310;23;19922;-85
2022/05/22 05:29:20;;;;;;;;;;;;;;;;;;6199534;23;20247;-85
2022/05/22 05:31:46;;;;;;;;;;;;;;;;;;6176597;23;19923;-85
2022/05/22 05:34:13;;;;;;;;;;;;;;;;;;6229991;23;19919;-85
2022/05/22 05:36:39;;;;;;;;;;;;;;;;;;6231037;23;19947;-85
2022/05/22 05:39:05;;;;;;;;;;;;;;;;;;6202571;23;19927;-85
2022/05/22 05:41:31;;;;;;;;;;;;;;;;;;6200333;23;19923;-86
2022/05/22 05:44:07;;;;;;;;;;;;;;;;;;6179087;23;19923;-85
2022/05/22 05:46:37;;;;;;;;;;;;;;;;;;6178416;23;20014;-85
2022/05/22 05:49:03;;;;;;;;;;;;;;;;;;6178562;23;19919;-85
2022/05/22 05:51:28;;;;;;;;;;;;;;;;;;6200274;23;19919;-85
2022/05/22 05:53:54;;;;;;;;;;;;;;;;;;6229861;23;20379;-85
2022/05/22 05:56:20;;;;;;;;;;;;;;;;;;6174732;23;19973;-85
2022/05/22 05:58:46;;;;;;;;;;;;;;;;;;6200937;23;19969;-85
2022/05/22 06:01:12;;;;;;;;;;;;;;;;;;6177965;23;19973;-85
2022/05/22 06:03:38;;;;;;;;;;;;;;;;;;6201078;23;20363;-85
2022/05/22 06:06:04;;;;;;;;;;;;;;;;;;6177367;23;19920;-85
2022/05/22 06:08:38;;;;;;;;;;;;;;;;;;6174635;23;19920;-86
2022/05/22 06:11:04;;;;;;;;;;;;;;;;;;6203341;23;19977;-86
2022/05/22 06:13:35;;;;;;;;;;;;;;;;;;6175732;23;20347;-85
2022/05/22 06:16:02;;;;;;;;;;;;;;;;;;6177216;23;19915;-85
2022/05/22 06:18:28;;;;;;;;;;;;;;;;;;6172553;23;20011;-85
2022/05/22 06:20:54;;;;;;;;;;;;;;;;;;6177450;23;19998;-85
2022/05/22 06:23:20;;;;;;;;;;;;;;;;;;6175144;23;20055;-85
2022/05/22 06:25:46;;;;;;;;;;;;;;;;;;6177957;23;20229;-85
2022/05/22 06:28:12;;;;;;;;;;;;;;;;;;6203166;23;20230;-85
2022/05/22 06:30:38;;;;;;;;;;;;;;;;;;6202384;23;20391;-85
2022/05/22 06:33:04;;;;;;;;;;;;;;;;;;6178650;23;19920;-85
2022/05/22 06:35:30;;;;;;;;;;;;;;;;;;6200348;23;19997;-85
2022/05/22 06:37:56;;;;;;;;;;;;;;;;;;6177839;23;19924;-85
2022/05/22 06:40:22;;;;;;;;;;;;;;;;;;6201866;23;19920;-85
2022/05/22 06:42:48;;;;;;;;;;;;;;;;;;6179673;23;19924;-85
2022/05/22 06:45:14;;;;;;;;;;;;;;;;;;6175036;23;20396;-86
2022/05/22 06:47:40;;;;;;;;;;;;;;;;;;6177304;23;19919;-86
2022/05/22 06:50:06;;;;;;;;;;;;;;;;;;6175907;23;19920;-85
2022/05/22 06:52:32;;;;;;;;;;;;;;;;;;6175115;23;19999;-85
2022/05/22 06:54:58;;;;;;;;;;;;;;;;;;6177601;23;20331;-86
2022/05/22 06:57:24;;;;;;;;;;;;;;;;;;6200542;23;19966;-86
2022/05/22 06:59:50;;;;;;;;;;;;;;;;;;6177296;23;19922;-85
2022/05/22 07:02:16;;;;;;;;;;;;;;;;;;6173700;23;20014;-86
2022/05/22 07:04:42;;;;;;;;;;;;;;;;;;6176273;23;19927;-85
2022/05/22 07:07:08;;;;;;;;;;;;;;;;;;6175043;23;20533;-85
2022/05/22 07:09:34;;;;;;;;;;;;;;;;;;6174683;23;19920;-85
2022/05/22 07:12:00;;;;;;;;;;;;;;;;;;6177497;23;19922;-85
2022/05/22 07:14:27;;;;;;;;;;;;;;;;;;6202152;23;19920;-85
2022/05/22 07:16:53;;;;;;;;;;;;;;;;;;6203213;23;19919;-85
2022/05/22 07:19:19;;;;;;;;;;;;;;;;;;6177086;23;19995;-85
2022/05/22 07:21:45;;;;;;;;;;;;;;;;;;6207166;23;19998;-86
2022/05/22 07:24:11;;;;;;;;;;;;;;;;;;6205282;23;20313;-86
2022/05/22 07:26:37;;;;;;;;;;;;;;;;;;6203400;23;19955;-85
2022/05/22 07:29:03;;;;;;;;;;;;;;;;;;6182302;23;19923;-86
2022/05/22 07:31:29;;;;;;;;;;;;;;;;;;6177444;23;19942;-86
2022/05/22 07:33:55;;;;;;;;;;;;;;;;;;6204478;23;19919;-86
2022/05/22 07:36:21;;;;;;;;;;;;;;;;;;6176266;23;19931;-86
2022/05/22 07:38:47;;;;;;;;;;;;;;;;;;6202432;23;19924;-86
2022/05/22 07:41:13;;;;;;;;;;;;;;;;;;6174443;23;20254;-85
2022/05/22 07:43:39;;;;;;;;;;;;;;;;;;6178642;23;19964;-86
2022/05/22 07:46:05;;;;;;;;;;;;;;;;;;6204408;23;20345;-86
2022/05/22 07:48:31;;;;;;;;;;;;;;;;;;6176792;23;19920;-86
2022/05/22 07:50:57;;;;;;;;;;;;;;;;;;6202606;23;19930;-85
2022/05/22 07:53:23;;;;;;;;;;;;;;;;;;6173358;23;20400;-86
2022/05/22 07:55:49;;;;;;;;;;;;;;;;;;6201023;23;20302;-86
2022/05/22 07:58:15;;;;;;;;;;;;;;;;;;6197215;23;19926;-86
2022/05/22 08:00:41;;;;;;;;;;;;;;;;;;6204172;23;19974;-86
2022/05/22 08:03:07;;;;;;;;;;;;;;;;;;6202632;23;19934;-86
2022/05/22 08:05:33;;;;;;;;;;;;;;;;;;6175321;23;19920;-85
2022/05/22 08:07:59;;;;;;;;;;;;;;;;;;6178685;23;19915;-86
2022/05/22 08:10:25;;;;;;;;;;;;;;;;;;6174455;23;19981;-86
2022/05/22 08:12:57;;;;;;;;;;;;;;;;;;6170923;23;20308;-86
2022/05/22 08:15:23;;;;;;;;;;;;;;;;;;6195220;23;19990;-86
2022/05/22 08:17:49;;;;;;;;;;;;;;;;;;6197937;23;19994;-86
2022/05/22 08:20:15;;;;;;;;;;;;;;;;;;6170920;23;20287;-86
2022/05/22 08:22:42;;;;;;;;;;;;;;;;;;6175298;23;19930;-86
2022/05/22 08:25:07;;;;;;;;;;;;;;;;;;6175467;23;20014;-85
2022/05/22 08:27:36;;;;;;;;;;;;;;;;;;6171364;23;20048;-86
2022/05/22 08:30:02;;;;;;;;;;;;;;;;;;6174252;23;20001;-85
2022/05/22 08:32:28;;;;;;;;;;;;;;;;;;6194613;23;20332;-86
2022/05/22 08:34:54;;;;;;;;;;;;;;;;;;6197220;23;20564;-86
2022/05/22 08:37:20;;;;;;;;;;;;;;;;;;6173294;23;20323;-86
2022/05/22 08:39:46;;;;;;;;;;;;;;;;;;6176481;23;20630;-86
2022/05/22 08:42:12;;;;;;;;;;;;;;;;;;6175060;23;19930;-86
2022/05/22 08:44:38;;;;;;;;;;;;;;;;;;6174024;23;19987;-86
2022/05/22 08:47:04;;;;;;;;;;;;;;;;;;6198985;23;19954;-85
2022/05/22 08:49:30;;;;;;;;;;;;;;;;;;6169320;23;19965;-86
2022/05/22 08:51:56;;;;;;;;;;;;;;;;;;6174881;23;19919;-86
2022/05/22 08:54:25;;;;;;;;;;;;;;;;;;6169579;23;19920;-86
2022/05/22 08:59:41;;;;;;;;;;;;;;;;;;6197238;23;20283;-86
2022/05/22 09:02:08;;;;;;;;;;;;;;;;;;6200600;23;19982;-86
2022/05/22 09:04:34;;;;;;;;;;;;;;;;;;6175384;23;20866;-86
2022/05/22 09:07:00;;;;;;;;;;;;;;;;;;6201939;23;19919;-86
2022/05/22 09:09:26;;;;;;;;;;;;;;;;;;6173050;23;19928;-87
2022/05/22 09:11:52;;;;;;;;;;;;;;;;;;6174483;23;19923;-87
2022/05/22 09:14:18;;;;;;;;;;;;;;;;;;6196162;23;19976;-86
2022/05/22 09:16:44;;;;;;;;;;;;;;;;;;6175040;23;19920;-86
2022/05/22 09:19:14;;;;;;;;;;;;;;;;;;6174508;23;19923;-86
2022/05/22 09:21:41;;;;;;;;;;;;;;;;;;6172604;23;19955;-86
2022/05/22 09:24:07;;;;;;;;;;;;;;;;;;6174561;23;19916;-87
2022/05/22 09:26:33;;;;;;;;;;;;;;;;;;6195378;23;20367;-87
2022/05/22 09:28:59;;;;;;;;;;;;;;;;;;6197963;23;20001;-87
2022/05/22 09:31:25;;;;;;;;;;;;;;;;;;6196621;23;20214;-87
2022/05/22 09:33:51;;;;;;;;;;;;;;;;;;6175672;23;19969;-86
2022/05/22 09:36:17;;;;;;;;;;;;;;;;;;6195945;23;19955;-87
2022/05/22 09:38:43;;;;;;;;;;;;;;;;;;6172132;23;19919;-87
2022/05/22 09:41:09;;;;;;;;;;;;;;;;;;6223787;23;20368;-86
2022/05/22 09:43:35;;;;;;;;;;;;;;;;;;6196355;23;19919;-86
2022/05/22 09:46:01;;;;;;;;;;;;;;;;;;6202266;23;19942;-87
2022/05/22 09:48:27;;;;;;;;;;;;;;;;;;6200079;23;19923;-87
2022/05/22 09:50:53;;;;;;;;;;;;;;;;;;6176549;23;19926;-87
2022/05/22 09:53:19;;;;;;;;;;;;;;;;;;6200043;23;19924;-85
2022/05/22 09:55:45;;;;;;;;;;;;;;;;;;6179709;23;19920;-86
2022/05/22 09:58:11;;;;;;;;;;;;;;;;;;6176774;23;19920;-87
2022/05/22 10:00:37;;;;;;;;;;;;;;;;;;6172976;23;19924;-81
2022/05/22 10:03:03;;;;;;;;;;;;;;;;;;6174423;23;19923;-85
2022/05/22 10:05:29;;;;;;;;;;;;;;;;;;6196180;23;19927;-86
2022/05/22 10:07:55;;;;;;;;;;;;;;;;;;6195885;23;19919;-86
2022/05/22 10:10:21;;;;;;;;;;;;;;;;;;6196633;23;19931;-87
2022/05/22 10:12:47;;;;;;;;;;;;;;;;;;6196794;23;19953;-86
2022/05/22 10:15:13;;;;;;;;;;;;;;;;;;6196915;23;19926;-86
2022/05/22 10:17:39;;;;;;;;;;;;;;;;;;6199366;23;19923;-86
2022/05/22 10:20:05;;;;;;;;;;;;;;;;;;6172751;23;19926;-86
2022/05/22 10:22:31;;;;;;;;;;;;;;;;;;6222341;23;19930;-86
2022/05/22 10:24:57;;;;;;;;;;;;;;;;;;6226134;23;19931;-85
2022/05/22 10:27:23;;;;;;;;;;;;;;;;;;6200075;23;19927;-86
2022/05/22 10:29:49;;;;;;;;;;;;;;;;;;6202516;23;20256;-87
2022/05/22 10:32:15;;;;;;;;;;;;;;;;;;6228327;23;19919;-87
2022/05/22 10:34:41;;;;;;;;;;;;;;;;;;6204618;23;19935;-87
2022/05/22 10:37:07;;;;;;;;;;;;;;;;;;6204782;23;19920;-88
2022/05/22 10:39:32;;;;;;;;;;;;;;;;;;6202454;23;20454;-87
2022/05/22 10:44:46;;;;;;;;;;;;;;;;;;6231655;23;19919;-87
2022/05/22 10:47:15;;;;;;;;;;;;;;;;;;6233440;23;19990;-87
2022/05/22 10:49:44;;;;;;;;;;;;;;;;;;6181684;23;19938;-86
2022/05/22 10:52:10;;;;;;;;;;;;;;;;;;6181201;23;20288;-86
2022/05/22 10:54:36;;;;;;;;;;;;;;;;;;6178941;23;19919;-86
2022/05/22 10:57:02;;;;;;;;;;;;;;;;;;6201631;23;20327;-86
2022/05/22 10:59:31;;;;;;;;;;;;;;;;;;6174451;23;20406;-86
2022/05/22 11:02:05;;;;;;;;;;;;;;;;;;6178622;23;19967;-86
2022/05/22 11:04:31;;;;;;;;;;;;;;;;;;6204052;23;19923;-86
2022/05/22 11:06:57;;;;;;;;;;;;;;;;;;6180834;23;19915;-85
2022/05/22 11:09:22;;;;;;;;;;;;;;;;;;6180518;23;19969;-82
2022/05/22 11:11:48;;;;;;;;;;;;;;;;;;6233560;23;20744;-80
2022/05/22 11:14:14;;;;;;;;;;;;;;;;;;6203660;23;19972;-81
2022/05/22 11:16:40;;;;;;;;;;;;;;;;;;6235635;23;19915;-80
2022/05/22 11:19:06;;;;;;;;;;;;;;;;;;6207161;23;19919;-80
2022/05/22 11:21:32;;;;;;;;;;;;;;;;;;6233146;23;19930;-81
2022/05/22 11:23:58;;;;;;;;;;;;;;;;;;6234472;23;19919;-81
2022/05/22 11:26:25;;;;;;;;;;;;;;;;;;6205885;23;19919;-79
2022/05/22 11:28:51;;;;;;;;;;;;;;;;;;6235854;23;19915;-81
2022/05/22 11:31:17;;;;;;;;;;;;;;;;;;6202814;23;19942;-82
2022/05/22 11:33:45;;;;;;;;;;;;;;;;;;6234749;23;19981;-82
2022/05/22 11:36:11;;;;;;;;;;;;;;;;;;6235727;23;19919;-81
2022/05/22 11:38:37;;;;;;;;;;;;;;;;;;6231956;23;20344;-81
2022/05/22 11:41:03;;;;;;;;;;;;;;;;;;6233537;23;19919;-82
2022/05/22 11:43:32;;;;;;;;;;;;;;;;;;6203634;23;19920;-86
2022/05/22 11:45:58;;;;;;;;;;;;;;;;;;6207192;23;19919;-86
2022/05/22 11:48:24;;;;;;;;;;;;;;;;;;6181985;23;19915;-86
2022/05/22 11:50:50;;;;;;;;;;;;;;;;;;6228364;22;19922;-86
2022/05/22 11:53:16;;;;;;;;;;;;;;;;;;6229196;23;19919;-86
2022/05/22 11:55:42;;;;;;;;;;;;;;;;;;6234734;23;19982;-86
2022/05/22 11:58:08;;;;;;;;;;;;;;;;;;6235698;23;19919;-86
2022/05/22 12:00:33;;;;;;;;;;;;;;;;;;6232902;23;19927;-86
2022/05/22 12:03:02;;;;;;;;;;;;;;;;;;6209351;23;19930;-85
2022/05/22 12:05:29;;;;;;;;;;;;;;;;;;6208797;23;19916;-86
2022/05/22 12:07:57;;;;;;;;;;;;;;;;;;6210346;23;20324;-85
2022/05/22 12:10:23;;;;;;;;;;;;;;;;;;6225250;23;19919;-85
2022/05/22 12:12:49;;;;;;;;;;;;;;;;;;6227631;23;19919;-82
2022/05/22 12:15:16;;;;;;;;;;;;;;;;;;6226434;23;20122;-82
2022/05/22 12:17:43;;;;;;;;;;;;;;;;;;6228466;23;19934;-82
2022/05/22 12:20:13;;;;;;;;;;;;;;;;;;6230639;23;19920;-82
2022/05/22 12:25:28;;;;;;;;;;;;;;;;;;6234638;23;20233;-83
2022/05/22 12:27:54;;;;;;;;;;;;;;;;;;6238282;23;19915;-82
2022/05/22 12:30:20;;;;;;;;;;;;;;;;;;6235615;23;19941;-83
2022/05/22 12:32:46;;;;;;;;;;;;;;;;;;6184260;23;20377;-83
2022/05/22 12:35:12;;;;;;;;;;;;;;;;;;6237102;23;19919;-83
2022/05/22 12:37:38;;;;;;;;;;;;;;;;;;6209166;23;19915;-82
2022/05/22 12:40:04;;;;;;;;;;;;;;;;;;6235164;23;19927;-82
2022/05/22 12:42:30;;;;;;;;;;;;;;;;;;6222004;22;19966;-83
2022/05/22 12:44:56;;;;;;;;;;;;;;;;;;6240767;22;19919;-82
2022/05/22 12:47:22;;;;;;;;;;;;;;;;;;6265203;22;19920;-82
2022/05/22 12:49:48;;;;;;;;;;;;;;;;;;6239686;22;19942;-82
2022/05/22 12:52:15;;;;;;;;;;;;;;;;;;6263576;22;19967;-82
2022/05/22 12:54:41;;;;;;;;;;;;;;;;;;6264625;22;20390;-82
2022/05/22 12:57:07;;;;;;;;;;;;;;;;;;6236765;22;19969;-82
2022/05/22 12:59:33;;;;;;;;;;;;;;;;;;6234636;22;20469;-82
2022/05/22 13:01:59;;;;;;;;;;;;;;;;;;6236075;22;20520;-83
2022/05/22 13:04:25;;;;;;;;;;;;;;;;;;6231145;22;19915;-83
2022/05/22 13:06:51;;;;;;;;;;;;;;;;;;6232435;22;19927;-82
2022/05/22 13:09:17;;;;;;;;;;;;;;;;;;6203514;22;20614;-82
2022/05/22 13:11:43;;;;;;;;;;;;;;;;;;6207259;22;19945;-83
2022/05/22 13:14:09;;;;;;;;;;;;;;;;;;6232827;22;19919;-82
2022/05/22 13:16:35;;;;;;;;;;;;;;;;;;6232224;22;20256;-82
2022/05/22 13:19:01;;;;;;;;;;;;;;;;;;6236876;22;20390;-82
2022/05/22 13:21:27;;;;;;;;;;;;;;;;;;6233082;22;20366;-82
2022/05/22 13:23:53;;;;;;;;;;;;;;;;;;6236113;22;20256;-82
2022/05/22 13:26:19;;;;;;;;;;;;;;;;;;6234492;22;20248;-82
2022/05/22 13:28:45;;;;;;;;;;;;;;;;;;6237027;22;20308;-83
2022/05/22 13:31:12;;;;;;;;;;;;;;;;;;6211539;22;19923;-82
2022/05/22 13:33:40;;;;;;;;;;;;;;;;;;6236967;22;20382;-82
2022/05/22 13:36:06;;;;;;;;;;;;;;;;;;6211368;22;19923;-82
2022/05/22 13:38:33;;;;;;;;;;;;;;;;;;6232436;22;20888;-82
2022/05/22 13:40:59;;;;;;;;;;;;;;;;;;6235857;22;20382;-82
2022/05/22 13:43:25;;;;;;;;;;;;;;;;;;6207521;22;19923;-82
2022/05/22 13:45:51;;;;;;;;;;;;;;;;;;6235610;22;19930;-83
2022/05/22 13:48:17;;;;;;;;;;;;;;;;;;6208772;22;19926;-82
2022/05/22 13:53:27;;;;;;;;;;;;;;;;;;6229938;22;19915;-83
2022/05/22 13:55:55;;;;;;;;;;;;;;;;;;6237430;22;19922;-83
2022/05/22 13:58:21;;;;;;;;;;;;;;;;;;6232569;22;20374;-83
2022/05/22 14:00:48;;;;;;;;;;;;;;;;;;6234339;22;19926;-83
2022/05/22 14:03:14;;;;;;;;;;;;;;;;;;6207395;22;19969;-83
2022/05/22 14:05:40;;;;;;;;;;;;;;;;;;6208769;22;19919;-83
2022/05/22 14:08:06;;;;;;;;;;;;;;;;;;6210978;22;19919;-82
2022/05/22 14:10:32;;;;;;;;;;;;;;;;;;6235086;22;19919;-83
2022/05/22 14:12:58;;;;;;;;;;;;;;;;;;6236114;22;20397;-83
2022/05/22 14:15:24;;;;;;;;;;;;;;;;;;6231062;22;19923;-82
2022/05/22 14:17:50;;;;;;;;;;;;;;;;;;6235351;22;19957;-82
2022/05/22 14:20:15;;;;;;;;;;;;;;;;;;6231710;22;20248;-82
2022/05/22 14:22:41;;;;;;;;;;;;;;;;;;6235782;22;19919;-83
2022/05/22 14:25:08;;;;;;;;;;;;;;;;;;6212396;22;20049;-82
2022/05/22 14:27:34;;;;;;;;;;;;;;;;;;6235545;22;19919;-83
2022/05/22 14:30:00;;;;;;;;;;;;;;;;;;6233837;22;19919;-82
2022/05/22 14:32:26;;;;;;;;;;;;;;;;;;6231077;22;19920;-82
2022/05/22 14:34:52;;;;;;;;;;;;;;;;;;6236369;22;19988;-82
2022/05/22 14:37:19;;;;;;;;;;;;;;;;;;6232919;22;19920;-82
2022/05/22 14:39:59;;;;;;;;;;;;;;;;;;6266234;22;20243;-82
2022/05/22 14:42:25;;;;;;;;;;;;;;;;;;6209640;22;20006;-82
2022/05/22 14:44:52;;;;;;;;;;;;;;;;;;6206955;22;19926;-82
2022/05/22 14:47:20;;;;;;;;;;;;;;;;;;6232121;22;19921;-82
2022/05/22 14:49:46;;;;;;;;;;;;;;;;;;6265145;22;19956;-82
2022/05/22 14:52:12;;;;;;;;;;;;;;;;;;6233847;22;19923;-83
2022/05/22 14:54:42;;;;;;;;;;;;;;;;;;6232802;22;20358;-83
2022/05/22 14:57:08;;;;;;;;;;;;;;;;;;6234759;22;19919;-83
2022/05/22 14:59:34;;;;;;;;;;;;;;;;;;6260622;22;20537;-83
2022/05/22 15:02:00;;;;;;;;;;;;;;;;;;6236265;22;20340;-82
2022/05/22 15:04:28;;;;;;;;;;;;;;;;;;6234653;22;20383;-83
2022/05/22 15:06:54;;;;;;;;;;;;;;;;;;6237721;22;19919;-83
2022/05/22 15:09:19;;;;;;;;;;;;;;;;;;6208212;22;20037;-83
2022/05/22 15:11:45;;;;;;;;;;;;;;;;;;6208532;22;19919;-83
2022/05/22 15:14:11;;;;;;;;;;;;;;;;;;6210521;22;19919;-83
2022/05/22 15:16:37;;;;;;;;;;;;;;;;;;6229086;22;19994;-83
2022/05/22 15:21:48;;;;;;;;;;;;;;;;;;6228356;22;19923;-83
2022/05/22 15:27:00;;;;;;;;;;;;;;;;;;6226504;22;20064;-82
2022/05/22 15:29:26;;;;;;;;;;;;;;;;;;6225488;22;19919;-83
2022/05/22 15:31:52;;;;;;;;;;;;;;;;;;6227698;22;19926;-83
2022/05/22 15:34:18;;;;;;;;;;;;;;;;;;6227867;22;20292;-82
2022/05/22 15:36:44;;;;;;;;;;;;;;;;;;6231375;22;20370;-83
2022/05/22 15:39:10;;;;;;;;;;;;;;;;;;6204351;22;20259;-83
2022/05/22 15:41:36;;;;;;;;;;;;;;;;;;6201117;22;19925;-83
2022/05/22 15:44:02;;;;;;;;;;;;;;;;;;6228488;22;19919;-83
2022/05/22 15:46:28;;;;;;;;;;;;;;;;;;6254067;22;19999;-83
2022/05/22 15:51:39;;;;;;;;;;;;;;;;;;6226283;22;20029;-83
2022/05/22 15:54:04;;;;;;;;;;;;;;;;;;6233310;22;20347;-83
2022/05/22 15:56:30;;;;;;;;;;;;;;;;;;6233619;22;19916;-83
2022/05/22 15:58:58;;;;;;;;;;;;;;;;;;6234545;22;20399;-83
2022/05/22 16:01:24;;;;;;;;;;;;;;;;;;6258871;22;20570;-82
2022/05/22 16:03:50;;;;;;;;;;;;;;;;;;6235658;22;20324;-83
2022/05/22 16:06:17;;;;;;;;;;;;;;;;;;6234905;22;19920;-83
2022/05/22 16:08:43;;;;;;;;;;;;;;;;;;6235660;22;20205;-83
2022/05/22 16:11:10;;;;;;;;;;;;;;;;;;6232769;22;19954;-82
2022/05/22 16:13:36;;;;;;;;;;;;;;;;;;6227270;22;20026;-82
2022/05/22 16:16:02;;;;;;;;;;;;;;;;;;6229158;22;20348;-82
2022/05/22 16:18:29;;;;;;;;;;;;;;;;;;6228429;22;19919;-82
2022/05/22 16:20:55;;;;;;;;;;;;;;;;;;6229250;22;19940;-82
2022/05/22 16:23:21;;;;;;;;;;;;;;;;;;6202215;22;19972;-82
2022/05/22 16:25:47;;;;;;;;;;;;;;;;;;6203004;22;19915;-83
2022/05/22 16:28:13;;;;;;;;;;;;;;;;;;6227721;22;19926;-83
2022/05/22 16:30:39;;;;;;;;;;;;;;;;;;6230241;22;20402;-82
2022/05/22 16:33:05;;;;;;;;;;;;;;;;;;6226506;22;19923;-82
2022/05/22 16:35:31;;;;;;;;;;;;;;;;;;6226605;22;19919;-83
2022/05/22 16:37:57;;;;;;;;;;;;;;;;;;6228856;22;19927;-82
2022/05/22 16:40:23;;;;;;;;;;;;;;;;;;6205654;22;19986;-82
2022/05/22 16:42:49;;;;;;;;;;;;;;;;;;6228487;22;20026;-82
2022/05/22 16:45:15;;;;;;;;;;;;;;;;;;6252016;22;19920;-83
2022/05/22 16:53:11;;;;;;;;;;;;;;;;;;6201623;23;19926;-83
2022/05/22 16:55:37;;;;;;;;;;;;;;;;;;6172466;23;19924;-82
2022/05/22 16:58:07;;;;;;;;;;;;;;;;;;6199416;23;19925;-82
2022/05/22 17:00:33;;;;;;;;;;;;;;;;;;6226841;23;19928;-82
2022/05/22 17:02:59;;;;;;;;;;;;;;;;;;6199998;23;19928;-82
2022/05/22 17:05:25;;;;;;;;;;;;;;;;;;6172642;23;20285;-82
2022/05/22 17:07:55;;;;;;;;;;;;;;;;;;6202627;23;19942;-82
2022/05/22 17:10:21;;;;;;;;;;;;;;;;;;6177870;23;19939;-82
2022/05/22 17:12:47;;;;;;;;;;;;;;;;;;6178487;23;19969;-82